Terminal Aerodrome Forecast
Issued by NWS Detroit/Pontiac, MI

Home | Current Version | Previous Version | Text Only | Print | Product List | Glossary On
Versions: 1 2 3 4 5 6 7 8 9 10 11 12 13 14 15
380
FTUS43 KDTX 211123
TAFFNT
TAF
KFNT 211123Z 2112/2212 17007KT P6SM BKN045 OVC200
     FM211500 24008KT 6SM -SHRA BKN035 OVC060
      TEMPO 2116/2118 5SM -SHRA BKN018 OVC028
     FM211800 25006KT P6SM OVC022
     FM220100 VRB03KT 3SM BR OVC008
     FM220500 22003KT 1SM BR OVC003=

USA.gov is the U.S. government's official web portal to all federal, state and local government web resources and services.